sensor_id;sensor_type;location;lat;lon;timestamp;P1;durP1;ratioP1;P2;durP2;ratioP2
36949;SDS011;22861;55.824;37.660;2022-07-18T00:01:40;5.10;;;3.80;;
36949;SDS011;22861;55.824;37.660;2022-07-18T00:04:06;7.85;;;3.88;;
36949;SDS011;22861;55.824;37.660;2022-07-18T00:06:32;6.63;;;4.30;;
36949;SDS011;22861;55.824;37.660;2022-07-18T00:08:57;5.82;;;3.88;;
36949;SDS011;22861;55.824;37.660;2022-07-18T00:11:23;8.30;;;4.30;;
36949;SDS011;22861;55.824;37.660;2022-07-18T00:13:48;8.50;;;4.55;;
36949;SDS011;22861;55.824;37.660;2022-07-18T00:16:16;7.35;;;3.78;;
36949;SDS011;22861;55.824;37.660;2022-07-18T00:18:43;5.90;;;3.45;;
36949;SDS011;22861;55.824;37.660;2022-07-18T00:21:08;7.55;;;4.22;;
36949;SDS011;22861;55.824;37.660;2022-07-18T00:23:34;7.47;;;4.13;;
36949;SDS011;22861;55.824;37.660;2022-07-18T00:25:59;7.40;;;4.10;;
36949;SDS011;22861;55.824;37.660;2022-07-18T00:28:25;7.93;;;3.85;;
36949;SDS011;22861;55.824;37.660;2022-07-18T00:30:50;8.70;;;3.78;;
36949;SDS011;22861;55.824;37.660;2022-07-18T00:33:16;7.35;;;3.72;;
36949;SDS011;22861;55.824;37.660;2022-07-18T00:35:41;11.35;;;3.60;;
36949;SDS011;22861;55.824;37.660;2022-07-18T00:38:07;7.72;;;4.25;;
36949;SDS011;22861;55.824;37.660;2022-07-18T00:40:32;8.00;;;4.53;;
36949;SDS011;22861;55.824;37.660;2022-07-18T00:42:58;5.75;;;3.65;;
36949;SDS011;22861;55.824;37.660;2022-07-18T00:45:24;6.45;;;3.80;;
36949;SDS011;22861;55.824;37.660;2022-07-18T00:47:49;8.40;;;3.83;;
36949;SDS011;22861;55.824;37.660;2022-07-18T00:50:17;7.07;;;4.30;;
36949;SDS011;22861;55.824;37.660;2022-07-18T00:52:43;5.80;;;3.70;;
36949;SDS011;22861;55.824;37.660;2022-07-18T00:55:08;6.00;;;3.58;;
36949;SDS011;22861;55.824;37.660;2022-07-18T00:57:34;8.90;;;3.78;;
36949;SDS011;22861;55.824;37.660;2022-07-18T01:00:02;7.07;;;3.30;;
36949;SDS011;22861;55.824;37.660;2022-07-18T01:02:49;11.02;;;3.50;;
36949;SDS011;22861;55.824;37.660;2022-07-18T01:05:14;8.90;;;3.88;;
36949;SDS011;22861;55.824;37.660;2022-07-18T01:07:40;9.48;;;3.33;;
36949;SDS011;22861;55.824;37.660;2022-07-18T01:10:06;8.40;;;3.17;;
36949;SDS011;22861;55.824;37.660;2022-07-18T01:12:32;5.20;;;3.13;;
36949;SDS011;22861;55.824;37.660;2022-07-18T01:14:58;8.00;;;3.20;;
36949;SDS011;22861;55.824;37.660;2022-07-18T01:17:23;7.22;;;2.90;;
36949;SDS011;22861;55.824;37.660;2022-07-18T01:19:49;9.23;;;3.33;;
36949;SDS011;22861;55.824;37.660;2022-07-18T01:22:15;7.20;;;3.10;;
36949;SDS011;22861;55.824;37.660;2022-07-18T01:24:44;9.05;;;3.13;;
36949;SDS011;22861;55.824;37.660;2022-07-18T01:27:28;6.55;;;2.60;;
36949;SDS011;22861;55.824;37.660;2022-07-18T01:29:53;5.60;;;2.90;;
36949;SDS011;22861;55.824;37.660;2022-07-18T01:32:19;5.07;;;2.67;;
36949;SDS011;22861;55.824;37.660;2022-07-18T01:34:48;8.10;;;3.80;;
36949;SDS011;22861;55.824;37.660;2022-07-18T01:37:15;7.38;;;2.83;;
36949;SDS011;22861;55.824;37.660;2022-07-18T01:39:41;7.20;;;3.20;;
36949;SDS011;22861;55.824;37.660;2022-07-18T01:42:08;6.45;;;3.28;;
36949;SDS011;22861;55.824;37.660;2022-07-18T01:44:35;6.40;;;3.47;;
36949;SDS011;22861;55.824;37.660;2022-07-18T01:47:02;6.60;;;3.35;;
36949;SDS011;22861;55.824;37.660;2022-07-18T01:49:30;6.10;;;2.90;;
36949;SDS011;22861;55.824;37.660;2022-07-18T01:51:56;6.43;;;3.03;;
36949;SDS011;22861;55.824;37.660;2022-07-18T01:54:22;5.00;;;2.85;;
36949;SDS011;22861;55.824;37.660;2022-07-18T01:56:50;6.03;;;3.50;;
36949;SDS011;22861;55.824;37.660;2022-07-18T01:59:16;9.65;;;3.20;;
36949;SDS011;22861;55.824;37.660;2022-07-18T02:01:42;11.48;;;3.70;;
36949;SDS011;22861;55.824;37.660;2022-07-18T02:04:08;7.47;;;3.63;;
36949;SDS011;22861;55.824;37.660;2022-07-18T02:06:33;6.30;;;3.30;;
36949;SDS011;22861;55.824;37.660;2022-07-18T02:08:59;7.15;;;2.83;;
36949;SDS011;22861;55.824;37.660;2022-07-18T02:11:24;7.50;;;3.33;;
36949;SDS011;22861;55.824;37.660;2022-07-18T02:13:50;5.07;;;2.97;;
36949;SDS011;22861;55.824;37.660;2022-07-18T02:16:16;9.77;;;2.90;;
36949;SDS011;22861;55.824;37.660;2022-07-18T02:18:41;8.73;;;2.95;;
36949;SDS011;22861;55.824;37.660;2022-07-18T02:21:07;5.68;;;2.90;;
36949;SDS011;22861;55.824;37.660;2022-07-18T02:23:33;8.18;;;2.95;;
36949;SDS011;22861;55.824;37.660;2022-07-18T02:25:59;5.55;;;3.10;;
36949;SDS011;22861;55.824;37.660;2022-07-18T02:28:25;6.18;;;3.10;;
36949;SDS011;22861;55.824;37.660;2022-07-18T02:30:51;5.75;;;2.90;;
36949;SDS011;22861;55.824;37.660;2022-07-18T02:33:16;5.13;;;2.75;;
36949;SDS011;22861;55.824;37.660;2022-07-18T02:35:42;4.75;;;2.60;;
36949;SDS011;22861;55.824;37.660;2022-07-18T02:38:08;5.22;;;2.45;;
36949;SDS011;22861;55.824;37.660;2022-07-18T02:40:34;5.70;;;2.50;;
36949;SDS011;22861;55.824;37.660;2022-07-18T02:42:59;5.32;;;2.40;;
36949;SDS011;22861;55.824;37.660;2022-07-18T02:45:25;4.45;;;2.42;;
36949;SDS011;22861;55.824;37.660;2022-07-18T02:47:51;5.03;;;2.40;;
36949;SDS011;22861;55.824;37.660;2022-07-18T02:50:17;6.47;;;2.67;;
36949;SDS011;22861;55.824;37.660;2022-07-18T02:52:43;7.57;;;3.30;;
36949;SDS011;22861;55.824;37.660;2022-07-18T02:55:09;7.13;;;2.72;;
36949;SDS011;22861;55.824;37.660;2022-07-18T02:57:35;4.90;;;2.50;;
36949;SDS011;22861;55.824;37.660;2022-07-18T03:00:03;5.00;;;2.25;;
36949;SDS011;22861;55.824;37.660;2022-07-18T03:02:30;5.10;;;2.55;;
36949;SDS011;22861;55.824;37.660;2022-07-18T03:04:55;5.05;;;2.53;;
36949;SDS011;22861;55.824;37.660;2022-07-18T03:07:21;3.95;;;2.08;;
36949;SDS011;22861;55.824;37.660;2022-07-18T03:09:46;4.05;;;2.30;;
36949;SDS011;22861;55.824;37.660;2022-07-18T03:12:12;6.95;;;2.50;;
36949;SDS011;22861;55.824;37.660;2022-07-18T03:14:38;6.85;;;3.03;;
36949;SDS011;22861;55.824;37.660;2022-07-18T03:17:03;4.75;;;2.92;;
36949;SDS011;22861;55.824;37.660;2022-07-18T03:19:29;6.43;;;3.13;;
36949;SDS011;22861;55.824;37.660;2022-07-18T03:21:54;6.30;;;2.90;;
36949;SDS011;22861;55.824;37.660;2022-07-18T03:24:20;5.30;;;3.13;;
36949;SDS011;22861;55.824;37.660;2022-07-18T03:26:45;6.95;;;2.88;;
36949;SDS011;22861;55.824;37.660;2022-07-18T03:29:11;7.05;;;3.15;;
36949;SDS011;22861;55.824;37.660;2022-07-18T03:31:37;5.97;;;2.83;;
36949;SDS011;22861;55.824;37.660;2022-07-18T03:34:03;7.88;;;2.88;;
36949;SDS011;22861;55.824;37.660;2022-07-18T03:36:28;6.60;;;2.75;;
36949;SDS011;22861;55.824;37.660;2022-07-18T03:38:54;6.35;;;3.30;;
36949;SDS011;22861;55.824;37.660;2022-07-18T03:41:19;4.88;;;2.80;;
36949;SDS011;22861;55.824;37.660;2022-07-18T03:43:45;5.78;;;2.97;;
36949;SDS011;22861;55.824;37.660;2022-07-18T03:46:11;6.20;;;3.15;;
36949;SDS011;22861;55.824;37.660;2022-07-18T03:48:36;7.20;;;2.42;;
36949;SDS011;22861;55.824;37.660;2022-07-18T03:51:02;6.72;;;2.83;;
36949;SDS011;22861;55.824;37.660;2022-07-18T03:53:28;4.50;;;2.50;;
36949;SDS011;22861;55.824;37.660;2022-07-18T03:55:54;6.50;;;2.78;;
36949;SDS011;22861;55.824;37.660;2022-07-18T03:58:20;7.55;;;3.17;;
36949;SDS011;22861;55.824;37.660;2022-07-18T04:00:46;7.63;;;2.80;;
36949;SDS011;22861;55.824;37.660;2022-07-18T04:03:11;8.05;;;2.55;;
36949;SDS011;22861;55.824;37.660;2022-07-18T04:05:37;7.50;;;2.83;;
36949;SDS011;22861;55.824;37.660;2022-07-18T04:08:02;7.70;;;2.55;;
36949;SDS011;22861;55.824;37.660;2022-07-18T04:10:28;6.15;;;2.42;;
36949;SDS011;22861;55.824;37.660;2022-07-18T04:12:54;6.75;;;2.58;;
36949;SDS011;22861;55.824;37.660;2022-07-18T04:15:21;6.95;;;2.83;;
36949;SDS011;22861;55.824;37.660;2022-07-18T04:17:49;4.80;;;2.10;;
36949;SDS011;22861;55.824;37.660;2022-07-18T04:20:15;5.20;;;2.22;;
36949;SDS011;22861;55.824;37.660;2022-07-18T04:25:19;6.28;;;2.70;;
36949;SDS011;22861;55.824;37.660;2022-07-18T04:27:49;3.75;;;2.00;;
36949;SDS011;22861;55.824;37.660;2022-07-18T04:30:16;3.63;;;1.80;;
36949;SDS011;22861;55.824;37.660;2022-07-18T04:32:43;4.55;;;2.33;;
36949;SDS011;22861;55.824;37.660;2022-07-18T04:35:09;4.10;;;2.13;;
36949;SDS011;22861;55.824;37.660;2022-07-18T04:37:35;5.05;;;2.28;;
36949;SDS011;22861;55.824;37.660;2022-07-18T04:40:00;4.03;;;2.30;;
36949;SDS011;22861;55.824;37.660;2022-07-18T04:42:28;7.15;;;2.33;;
36949;SDS011;22861;55.824;37.660;2022-07-18T04:44:55;4.88;;;2.40;;
36949;SDS011;22861;55.824;37.660;2022-07-18T04:47:21;5.15;;;2.55;;
36949;SDS011;22861;55.824;37.660;2022-07-18T04:49:46;4.93;;;2.28;;
36949;SDS011;22861;55.824;37.660;2022-07-18T04:52:12;7.00;;;2.40;;
36949;SDS011;22861;55.824;37.660;2022-07-18T04:54:37;6.32;;;2.70;;
36949;SDS011;22861;55.824;37.660;2022-07-18T04:57:03;5.63;;;2.35;;
36949;SDS011;22861;55.824;37.660;2022-07-18T04:59:28;5.82;;;2.40;;
36949;SDS011;22861;55.824;37.660;2022-07-18T05:01:54;5.50;;;2.92;;
36949;SDS011;22861;55.824;37.660;2022-07-18T05:04:19;5.10;;;2.80;;
36949;SDS011;22861;55.824;37.660;2022-07-18T05:06:45;6.88;;;2.30;;
36949;SDS011;22861;55.824;37.660;2022-07-18T05:09:10;6.40;;;2.50;;
36949;SDS011;22861;55.824;37.660;2022-07-18T05:11:36;4.75;;;2.20;;
36949;SDS011;22861;55.824;37.660;2022-07-18T05:14:01;6.93;;;1.92;;
36949;SDS011;22861;55.824;37.660;2022-07-18T05:16:27;7.82;;;2.10;;
36949;SDS011;22861;55.824;37.660;2022-07-18T05:18:52;7.20;;;2.25;;
36949;SDS011;22861;55.824;37.660;2022-07-18T05:21:18;4.45;;;2.10;;
36949;SDS011;22861;55.824;37.660;2022-07-18T05:23:43;7.10;;;2.80;;
36949;SDS011;22861;55.824;37.660;2022-07-18T05:26:10;6.05;;;2.55;;
36949;SDS011;22861;55.824;37.660;2022-07-18T05:28:37;5.28;;;2.65;;
36949;SDS011;22861;55.824;37.660;2022-07-18T05:31:02;6.13;;;2.97;;
36949;SDS011;22861;55.824;37.660;2022-07-18T05:33:28;7.40;;;3.85;;
36949;SDS011;22861;55.824;37.660;2022-07-18T05:35:53;9.00;;;3.67;;
36949;SDS011;22861;55.824;37.660;2022-07-18T05:38:19;7.75;;;3.13;;
36949;SDS011;22861;55.824;37.660;2022-07-18T05:40:44;7.57;;;3.65;;
36949;SDS011;22861;55.824;37.660;2022-07-18T05:43:10;5.47;;;3.13;;
36949;SDS011;22861;55.824;37.660;2022-07-18T05:45:36;6.75;;;3.20;;
36949;SDS011;22861;55.824;37.660;2022-07-18T05:48:02;6.95;;;3.53;;
36949;SDS011;22861;55.824;37.660;2022-07-18T05:50:27;8.50;;;2.92;;
36949;SDS011;22861;55.824;37.660;2022-07-18T05:52:53;7.75;;;3.67;;
36949;SDS011;22861;55.824;37.660;2022-07-18T05:55:18;4.75;;;2.80;;
36949;SDS011;22861;55.824;37.660;2022-07-18T05:57:44;6.47;;;4.20;;
36949;SDS011;22861;55.824;37.660;2022-07-18T06:00:10;9.77;;;5.25;;
36949;SDS011;22861;55.824;37.660;2022-07-18T06:02:36;8.52;;;4.70;;
36949;SDS011;22861;55.824;37.660;2022-07-18T06:05:02;9.90;;;4.80;;
36949;SDS011;22861;55.824;37.660;2022-07-18T06:07:29;9.40;;;4.65;;
36949;SDS011;22861;55.824;37.660;2022-07-18T06:09:54;6.28;;;3.85;;
36949;SDS011;22861;55.824;37.660;2022-07-18T06:12:20;11.50;;;4.18;;
36949;SDS011;22861;55.824;37.660;2022-07-18T06:14:46;5.63;;;3.50;;
36949;SDS011;22861;55.824;37.660;2022-07-18T06:17:11;7.22;;;3.85;;
36949;SDS011;22861;55.824;37.660;2022-07-18T06:19:37;7.30;;;3.10;;
36949;SDS011;22861;55.824;37.660;2022-07-18T06:22:04;5.25;;;3.10;;
36949;SDS011;22861;55.824;37.660;2022-07-18T06:24:30;5.15;;;2.80;;
36949;SDS011;22861;55.824;37.660;2022-07-18T06:26:55;5.03;;;2.92;;
36949;SDS011;22861;55.824;37.660;2022-07-18T06:29:21;8.00;;;3.00;;
36949;SDS011;22861;55.824;37.660;2022-07-18T06:31:47;4.60;;;3.03;;
36949;SDS011;22861;55.824;37.660;2022-07-18T06:34:12;8.95;;;3.33;;
36949;SDS011;22861;55.824;37.660;2022-07-18T06:36:38;7.75;;;3.10;;
36949;SDS011;22861;55.824;37.660;2022-07-18T06:39:03;7.85;;;3.58;;
36949;SDS011;22861;55.824;37.660;2022-07-18T06:41:34;6.85;;;3.67;;
36949;SDS011;22861;55.824;37.660;2022-07-18T06:44:00;10.93;;;3.90;;
36949;SDS011;22861;55.824;37.660;2022-07-18T06:46:26;7.70;;;3.60;;
36949;SDS011;22861;55.824;37.660;2022-07-18T06:48:51;6.35;;;3.92;;
36949;SDS011;22861;55.824;37.660;2022-07-18T06:51:17;6.78;;;4.20;;
36949;SDS011;22861;55.824;37.660;2022-07-18T06:53:42;7.78;;;4.32;;
36949;SDS011;22861;55.824;37.660;2022-07-18T06:56:08;6.53;;;3.72;;
36949;SDS011;22861;55.824;37.660;2022-07-18T06:58:33;6.68;;;4.18;;
36949;SDS011;22861;55.824;37.660;2022-07-18T07:00:59;8.38;;;4.50;;
36949;SDS011;22861;55.824;37.660;2022-07-18T07:03:24;9.20;;;4.85;;
36949;SDS011;22861;55.824;37.660;2022-07-18T07:05:50;8.75;;;5.15;;
36949;SDS011;22861;55.824;37.660;2022-07-18T07:08:16;8.38;;;4.93;;
36949;SDS011;22861;55.824;37.660;2022-07-18T07:10:41;8.07;;;4.22;;
36949;SDS011;22861;55.824;37.660;2022-07-18T07:13:07;8.77;;;3.83;;
36949;SDS011;22861;55.824;37.660;2022-07-18T07:15:33;7.05;;;3.63;;
36949;SDS011;22861;55.824;37.660;2022-07-18T07:17:59;5.22;;;3.25;;
36949;SDS011;22861;55.824;37.660;2022-07-18T07:20:24;6.63;;;2.85;;
36949;SDS011;22861;55.824;37.660;2022-07-18T07:22:51;8.85;;;3.95;;
36949;SDS011;22861;55.824;37.660;2022-07-18T07:25:19;5.70;;;3.10;;
36949;SDS011;22861;55.824;37.660;2022-07-18T07:27:46;4.78;;;2.45;;
36949;SDS011;22861;55.824;37.660;2022-07-18T07:30:12;6.97;;;3.00;;
36949;SDS011;22861;55.824;37.660;2022-07-18T07:32:40;4.85;;;2.60;;
36949;SDS011;22861;55.824;37.660;2022-07-18T07:35:10;5.60;;;2.80;;
36949;SDS011;22861;55.824;37.660;2022-07-18T07:37:44;4.80;;;2.38;;
36949;SDS011;22861;55.824;37.660;2022-07-18T07:40:15;4.18;;;2.45;;
36949;SDS011;22861;55.824;37.660;2022-07-18T07:42:41;4.47;;;2.65;;
36949;SDS011;22861;55.824;37.660;2022-07-18T07:45:08;3.90;;;1.90;;
36949;SDS011;22861;55.824;37.660;2022-07-18T07:47:34;4.38;;;2.20;;
36949;SDS011;22861;55.824;37.660;2022-07-18T07:50:01;2.85;;;1.80;;
36949;SDS011;22861;55.824;37.660;2022-07-18T07:52:28;6.15;;;1.80;;
36949;SDS011;22861;55.824;37.660;2022-07-18T07:54:54;4.50;;;1.70;;
36949;SDS011;22861;55.824;37.660;2022-07-18T07:57:19;3.92;;;1.63;;
36949;SDS011;22861;55.824;37.660;2022-07-18T07:59:45;3.15;;;1.60;;
36949;SDS011;22861;55.824;37.660;2022-07-18T08:02:11;2.80;;;1.50;;
36949;SDS011;22861;55.824;37.660;2022-07-18T08:04:37;2.45;;;1.50;;
36949;SDS011;22861;55.824;37.660;2022-07-18T08:07:02;3.50;;;1.40;;
36949;SDS011;22861;55.824;37.660;2022-07-18T08:09:28;2.95;;;1.30;;
36949;SDS011;22861;55.824;37.660;2022-07-18T08:11:54;1.90;;;1.27;;
36949;SDS011;22861;55.824;37.660;2022-07-18T08:14:19;2.80;;;1.33;;
36949;SDS011;22861;55.824;37.660;2022-07-18T08:16:45;2.60;;;1.40;;
36949;SDS011;22861;55.824;37.660;2022-07-18T08:19:10;2.25;;;1.35;;
36949;SDS011;22861;55.824;37.660;2022-07-18T08:21:36;2.75;;;1.20;;
36949;SDS011;22861;55.824;37.660;2022-07-18T08:24:01;3.45;;;1.65;;
36949;SDS011;22861;55.824;37.660;2022-07-18T08:26:27;1.65;;;1.20;;
36949;SDS011;22861;55.824;37.660;2022-07-18T08:28:53;2.75;;;1.38;;
36949;SDS011;22861;55.824;37.660;2022-07-18T08:31:18;1.98;;;1.30;;
36949;SDS011;22861;55.824;37.660;2022-07-18T08:33:44;5.88;;;1.45;;
36949;SDS011;22861;55.824;37.660;2022-07-18T08:36:10;2.45;;;1.40;;
36949;SDS011;22861;55.824;37.660;2022-07-18T08:38:37;2.92;;;1.52;;
36949;SDS011;22861;55.824;37.660;2022-07-18T08:41:03;3.13;;;1.67;;
36949;SDS011;22861;55.824;37.660;2022-07-18T08:43:29;2.35;;;1.67;;
36949;SDS011;22861;55.824;37.660;2022-07-18T08:45:55;4.43;;;1.80;;
36949;SDS011;22861;55.824;37.660;2022-07-18T08:48:22;4.97;;;1.42;;
36949;SDS011;22861;55.824;37.660;2022-07-18T08:50:48;3.42;;;2.00;;
36949;SDS011;22861;55.824;37.660;2022-07-18T08:53:15;3.25;;;1.75;;
36949;SDS011;22861;55.824;37.660;2022-07-18T08:55:42;4.78;;;2.47;;
36949;SDS011;22861;55.824;37.660;2022-07-18T08:58:09;5.57;;;2.33;;
36949;SDS011;22861;55.824;37.660;2022-07-18T09:00:37;4.97;;;1.95;;
36949;SDS011;22861;55.824;37.660;2022-07-18T09:03:03;5.18;;;2.42;;
36949;SDS011;22861;55.824;37.660;2022-07-18T09:05:30;9.07;;;3.47;;
36949;SDS011;22861;55.824;37.660;2022-07-18T09:08:16;6.28;;;3.13;;
36949;SDS011;22861;55.824;37.660;2022-07-18T09:10:48;4.88;;;2.60;;
36949;SDS011;22861;55.824;37.660;2022-07-18T09:13:15;6.00;;;2.92;;
36949;SDS011;22861;55.824;37.660;2022-07-18T09:15:57;7.35;;;2.80;;
36949;SDS011;22861;55.824;37.660;2022-07-18T09:18:35;6.82;;;3.15;;
36949;SDS011;22861;55.824;37.660;2022-07-18T09:21:22;10.50;;;4.55;;
36949;SDS011;22861;55.824;37.660;2022-07-18T09:23:49;7.80;;;3.80;;
36949;SDS011;22861;55.824;37.660;2022-07-18T09:29:03;6.22;;;2.95;;
36949;SDS011;22861;55.824;37.660;2022-07-18T09:31:29;4.10;;;1.85;;
36949;SDS011;22861;55.824;37.660;2022-07-18T09:33:55;3.50;;;1.80;;
36949;SDS011;22861;55.824;37.660;2022-07-18T09:36:22;2.95;;;1.70;;
36949;SDS011;22861;55.824;37.660;2022-07-18T09:38:48;4.25;;;2.45;;
36949;SDS011;22861;55.824;37.660;2022-07-18T09:41:14;4.65;;;2.35;;
36949;SDS011;22861;55.824;37.660;2022-07-18T09:43:40;4.25;;;2.10;;
36949;SDS011;22861;55.824;37.660;2022-07-18T09:46:06;4.82;;;2.10;;
36949;SDS011;22861;55.824;37.660;2022-07-18T09:48:33;3.90;;;1.98;;
36949;SDS011;22861;55.824;37.660;2022-07-18T09:51:00;4.00;;;2.10;;
36949;SDS011;22861;55.824;37.660;2022-07-18T09:53:30;3.97;;;2.15;;
36949;SDS011;22861;55.824;37.660;2022-07-18T09:56:01;4.65;;;1.80;;
36949;SDS011;22861;55.824;37.660;2022-07-18T09:58:30;4.10;;;1.70;;
36949;SDS011;22861;55.824;37.660;2022-07-18T10:00:57;3.63;;;1.90;;
36949;SDS011;22861;55.824;37.660;2022-07-18T10:03:25;4.35;;;1.80;;
36949;SDS011;22861;55.824;37.660;2022-07-18T10:05:52;2.65;;;1.60;;
36949;SDS011;22861;55.824;37.660;2022-07-18T10:08:19;2.22;;;1.40;;
36949;SDS011;22861;55.824;37.660;2022-07-18T10:10:48;6.20;;;1.70;;
36949;SDS011;22861;55.824;37.660;2022-07-18T10:13:16;6.93;;;2.17;;
36949;SDS011;22861;55.824;37.660;2022-07-18T10:15:44;4.40;;;2.00;;
36949;SDS011;22861;55.824;37.660;2022-07-18T10:18:15;5.32;;;2.08;;
36949;SDS011;22861;55.824;37.660;2022-07-18T10:20:45;3.35;;;1.55;;
36949;SDS011;22861;55.824;37.660;2022-07-18T10:23:17;3.17;;;1.88;;
36949;SDS011;22861;55.824;37.660;2022-07-18T10:31:23;4.20;;;1.70;;
36949;SDS011;22861;55.824;37.660;2022-07-18T10:33:55;3.63;;;1.63;;
36949;SDS011;22861;55.824;37.660;2022-07-18T10:36:35;4.72;;;1.90;;
36949;SDS011;22861;55.824;37.660;2022-07-18T11:03:10;5.50;;;1.92;;
36949;SDS011;22861;55.824;37.660;2022-07-18T11:05:43;2.92;;;1.70;;
36949;SDS011;22861;55.824;37.660;2022-07-18T11:21:52;2.38;;;1.33;;
36949;SDS011;22861;55.824;37.660;2022-07-18T11:26:27;2.63;;;1.40;;
36949;SDS011;22861;55.824;37.660;2022-07-18T11:29:00;2.67;;;1.40;;
36949;SDS011;22861;55.824;37.660;2022-07-18T11:34:16;1.77;;;1.20;;
36949;SDS011;22861;55.824;37.660;2022-07-18T11:36:45;2.72;;;1.20;;
36949;SDS011;22861;55.824;37.660;2022-07-18T11:39:12;2.38;;;1.40;;
36949;SDS011;22861;55.824;37.660;2022-07-18T11:41:41;2.80;;;1.30;;
36949;SDS011;22861;55.824;37.660;2022-07-18T11:44:17;2.67;;;1.20;;
36949;SDS011;22861;55.824;37.660;2022-07-18T11:46:45;3.22;;;1.50;;
36949;SDS011;22861;55.824;37.660;2022-07-18T11:49:11;3.45;;;1.30;;
36949;SDS011;22861;55.824;37.660;2022-07-18T11:51:38;3.08;;;1.38;;
36949;SDS011;22861;55.824;37.660;2022-07-18T11:54:06;3.10;;;1.20;;
36949;SDS011;22861;55.824;37.660;2022-07-18T11:56:32;3.05;;;1.20;;
36949;SDS011;22861;55.824;37.660;2022-07-18T11:58:57;2.03;;;1.20;;
36949;SDS011;22861;55.824;37.660;2022-07-18T12:01:30;1.92;;;1.15;;
36949;SDS011;22861;55.824;37.660;2022-07-18T12:03:57;1.98;;;1.20;;
36949;SDS011;22861;55.824;37.660;2022-07-18T12:06:23;4.47;;;1.60;;
36949;SDS011;22861;55.824;37.660;2022-07-18T12:08:49;3.45;;;1.60;;
36949;SDS011;22861;55.824;37.660;2022-07-18T12:11:28;4.22;;;1.40;;
36949;SDS011;22861;55.824;37.660;2022-07-18T12:14:12;5.15;;;2.15;;
36949;SDS011;22861;55.824;37.660;2022-07-18T12:16:43;6.72;;;1.70;;
36949;SDS011;22861;55.824;37.660;2022-07-18T12:19:18;7.00;;;2.10;;
36949;SDS011;22861;55.824;37.660;2022-07-18T12:21:55;5.38;;;1.88;;
36949;SDS011;22861;55.824;37.660;2022-07-18T12:35:21;5.07;;;1.67;;
36949;SDS011;22861;55.824;37.660;2022-07-18T12:38:02;4.93;;;2.00;;
36949;SDS011;22861;55.824;37.660;2022-07-18T12:43:37;6.60;;;1.80;;
36949;SDS011;22861;55.824;37.660;2022-07-18T12:46:07;3.42;;;1.80;;
36949;SDS011;22861;55.824;37.660;2022-07-18T12:48:34;5.30;;;1.77;;
36949;SDS011;22861;55.824;37.660;2022-07-18T12:51:02;6.70;;;2.20;;
36949;SDS011;22861;55.824;37.660;2022-07-18T12:53:36;4.97;;;1.65;;
36949;SDS011;22861;55.824;37.660;2022-07-18T12:56:03;3.25;;;1.58;;
36949;SDS011;22861;55.824;37.660;2022-07-18T12:58:30;5.05;;;1.70;;
36949;SDS011;22861;55.824;37.660;2022-07-18T13:00:55;2.92;;;1.67;;
36949;SDS011;22861;55.824;37.660;2022-07-18T13:03:21;4.05;;;1.80;;
36949;SDS011;22861;55.824;37.660;2022-07-18T13:05:47;4.60;;;1.80;;
36949;SDS011;22861;55.824;37.660;2022-07-18T13:08:13;5.13;;;2.00;;
36949;SDS011;22861;55.824;37.660;2022-07-18T13:10:39;3.22;;;1.63;;
36949;SDS011;22861;55.824;37.660;2022-07-18T13:13:06;4.57;;;2.08;;
36949;SDS011;22861;55.824;37.660;2022-07-18T13:15:33;5.22;;;1.60;;
36949;SDS011;22861;55.824;37.660;2022-07-18T13:17:59;6.15;;;2.05;;
36949;SDS011;22861;55.824;37.660;2022-07-18T13:20:24;4.90;;;1.85;;
36949;SDS011;22861;55.824;37.660;2022-07-18T13:22:50;3.95;;;1.83;;
36949;SDS011;22861;55.824;37.660;2022-07-18T13:25:17;3.40;;;1.65;;
36949;SDS011;22861;55.824;37.660;2022-07-18T13:27:43;4.32;;;1.70;;
36949;SDS011;22861;55.824;37.660;2022-07-18T13:30:09;3.38;;;2.10;;
36949;SDS011;22861;55.824;37.660;2022-07-18T13:32:35;4.50;;;1.67;;
36949;SDS011;22861;55.824;37.660;2022-07-18T13:35:01;2.30;;;1.42;;
36949;SDS011;22861;55.824;37.660;2022-07-18T13:37:27;4.10;;;2.08;;
36949;SDS011;22861;55.824;37.660;2022-07-18T13:39:52;6.43;;;1.88;;
36949;SDS011;22861;55.824;37.660;2022-07-18T13:42:18;2.97;;;1.73;;
36949;SDS011;22861;55.824;37.660;2022-07-18T13:44:43;3.63;;;1.40;;
36949;SDS011;22861;55.824;37.660;2022-07-18T13:47:13;3.40;;;1.70;;
36949;SDS011;22861;55.824;37.660;2022-07-18T13:49:39;4.95;;;1.42;;
36949;SDS011;22861;55.824;37.660;2022-07-18T13:52:05;2.22;;;1.20;;
36949;SDS011;22861;55.824;37.660;2022-07-18T13:54:30;3.60;;;1.30;;
36949;SDS011;22861;55.824;37.660;2022-07-18T13:56:56;1.90;;;1.42;;
36949;SDS011;22861;55.824;37.660;2022-07-18T13:59:22;2.45;;;1.35;;
36949;SDS011;22861;55.824;37.660;2022-07-18T14:01:47;2.42;;;1.10;;
36949;SDS011;22861;55.824;37.660;2022-07-18T14:04:14;3.55;;;1.50;;
36949;SDS011;22861;55.824;37.660;2022-07-18T14:06:40;2.72;;;1.35;;
36949;SDS011;22861;55.824;37.660;2022-07-18T14:09:06;2.03;;;1.20;;
36949;SDS011;22861;55.824;37.660;2022-07-18T14:11:31;2.85;;;1.73;;
36949;SDS011;22861;55.824;37.660;2022-07-18T14:14:01;3.50;;;1.30;;
36949;SDS011;22861;55.824;37.660;2022-07-18T14:18:53;3.25;;;1.48;;
36949;SDS011;22861;55.824;37.660;2022-07-18T14:21:18;4.95;;;1.70;;
36949;SDS011;22861;55.824;37.660;2022-07-18T14:23:44;2.20;;;1.40;;
36949;SDS011;22861;55.824;37.660;2022-07-18T14:26:09;2.65;;;1.40;;
36949;SDS011;22861;55.824;37.660;2022-07-18T14:28:35;5.53;;;1.52;;
36949;SDS011;22861;55.824;37.660;2022-07-18T14:31:00;3.42;;;1.52;;
36949;SDS011;22861;55.824;37.660;2022-07-18T14:33:26;2.40;;;1.30;;
36949;SDS011;22861;55.824;37.660;2022-07-18T14:35:52;3.47;;;1.90;;
36949;SDS011;22861;55.824;37.660;2022-07-18T14:38:17;2.35;;;1.10;;
36949;SDS011;22861;55.824;37.660;2022-07-18T14:40:43;4.60;;;1.50;;
36949;SDS011;22861;55.824;37.660;2022-07-18T14:43:08;3.92;;;1.65;;
36949;SDS011;22861;55.824;37.660;2022-07-18T14:45:34;4.07;;;1.27;;
36949;SDS011;22861;55.824;37.660;2022-07-18T14:47:59;3.08;;;1.50;;
36949;SDS011;22861;55.824;37.660;2022-07-18T14:50:25;2.60;;;1.10;;
36949;SDS011;22861;55.824;37.660;2022-07-18T14:52:50;2.45;;;1.50;;
36949;SDS011;22861;55.824;37.660;2022-07-18T14:55:16;3.17;;;1.42;;
36949;SDS011;22861;55.824;37.660;2022-07-18T14:57:41;4.40;;;1.40;;
36949;SDS011;22861;55.824;37.660;2022-07-18T15:00:07;3.50;;;1.40;;
36949;SDS011;22861;55.824;37.660;2022-07-18T15:02:34;2.92;;;1.35;;
36949;SDS011;22861;55.824;37.660;2022-07-18T15:05:01;2.20;;;1.10;;
36949;SDS011;22861;55.824;37.660;2022-07-18T15:07:27;4.53;;;1.45;;
36949;SDS011;22861;55.824;37.660;2022-07-18T15:09:53;2.47;;;1.23;;
36949;SDS011;22861;55.824;37.660;2022-07-18T15:12:19;3.50;;;1.45;;
36949;SDS011;22861;55.824;37.660;2022-07-18T15:14:44;3.08;;;1.35;;
36949;SDS011;22861;55.824;37.660;2022-07-18T15:17:09;1.42;;;1.20;;
36949;SDS011;22861;55.824;37.660;2022-07-18T15:19:35;5.00;;;1.40;;
36949;SDS011;22861;55.824;37.660;2022-07-18T15:22:01;3.00;;;1.40;;
36949;SDS011;22861;55.824;37.660;2022-07-18T15:24:27;2.33;;;1.50;;
36949;SDS011;22861;55.824;37.660;2022-07-18T15:26:52;2.55;;;1.25;;
36949;SDS011;22861;55.824;37.660;2022-07-18T15:29:18;4.82;;;1.45;;
36949;SDS011;22861;55.824;37.660;2022-07-18T15:31:43;2.72;;;1.40;;
36949;SDS011;22861;55.824;37.660;2022-07-18T15:34:08;2.55;;;1.42;;
36949;SDS011;22861;55.824;37.660;2022-07-18T15:36:34;2.38;;;1.38;;
36949;SDS011;22861;55.824;37.660;2022-07-18T15:39:00;3.90;;;1.20;;
36949;SDS011;22861;55.824;37.660;2022-07-18T15:41:25;4.15;;;1.48;;